Terminal Aerodrome Forecast
Issued by NWS

Home | Current Version | Previous Version | Text Only | Print | Product List | Glossary On
Versions: 1 2 3 4 5 6 7 8 9 10 11 12 13 14 15 16 17 18 19 20
000
FTUS46 KSEW 222320
TAFHQM
TAF
KHQM 222320Z 2300/2324 25009KT P6SM SCT100 SCT200
     FM230300 24006KT P6SM SCT070 SCT100
     FM230600 20004KT P6SM OVC012
     FM230900 VRB04KT 6SM BR OVC006
      TEMPO 2315/2318 5SM -RA BR OVC003
     FM231800 VRB04KT P6SM SCT015 BKN080
     FM232000 24007KT P6SM SCT080=

USA.gov is the U.S. government's official web portal to all federal, state and local government web resources and services.